WBKL

Labuan Airport

Labuan, Malaysia
TAF WBKL 221700Z 2218/2318 22005KT 9999 FEW015 TEMPO 2220/2300 4000 RA FEW012 SCT040
Issued Valid From Valid To
Jul-22 @ 17:00 UTC
(3 hours ago)
Jul-22 @ 18:00 UTC
(2 hours ago)
Jul-23 @ 18:00 UTC
(in 22 hours)
Jul-22 @ 18:00 to Jul-23 @ 18:00
TAF WBKL 221700Z 2218/2318 22005KT 9999 FEW015
Wind Visibility Clouds
220° at 5 knots 10,000+ meters
  • Few at 1,500' AGL
Temporary Jul-22 @ 20:00 to Jul-23 @ 00:00
TEMPO 2220/2300 4000 RA FEW012 SCT040
Visibility Clouds Conditions
4,007 meters
  • Few at 1,200' AGL
  • Scattered at 4,000' AGL
  • Rain
TAF WBKL 221700Z 2218/2318 22005KT 9999 FEW015 TEMPO 2220/2300 4000 RA FEW012 SCT040
Issued Jul-22 @ 17:00 UTC
(3 hours ago)
Valid From Jul-22 @ 18:00 UTC
(2 hours ago)
Valid To Jul-23 @ 18:00 UTC
(in 22 hours)
Jul-22 @ 18:00 - Jul-23 @ 18:00
Wind Visibility
220° at 5 knots 10,000+ meters
Clouds
  • Few at 1,500' AGL
Temporary Jul-22 @ 20:00 - Jul-23 @ 00:00
Clouds
  • Few at 1,200' AGL
  • Scattered at 4,000' AGL
Conditions
  • Rain